Time;durP1;ratioP1;P1;durP2;ratioP2;P2;SDS_P1;SDS_P2;PMS_P1;PMS_P2;Temp;Humidity;BMP_temperature;BMP_pressure;BME280_temperature;BME280_humidity;BME280_pressure;Samples;Min_cycle;Max_cycle;Signal;HPM_P1;HPM_P2
2022/04/18 00:00:24;;;;;;;1.10;1.00;;;16.40;60.40;;;;;;4844771;29;20485;-59
2022/04/18 00:02:58;;;;;;;4.57;3.80;;;16.40;61.90;;;;;;4845289;29;20475;-59
2022/04/18 00:05:29;;;;;;;1.00;1.00;;;16.40;64.10;;;;;;4846212;29;20466;-59
2022/04/18 00:08:01;;;;;;;1.30;1.20;;;16.40;62.50;;;;;;4846779;29;20482;-58
2022/04/18 00:10:31;;;;;;;2.07;1.70;;;16.40;61.40;;;;;;4845929;29;20509;-58
2022/04/18 00:13:02;;;;;;;1.50;1.40;;;16.30;62.00;;;;;;4842159;29;20473;-59
2022/04/18 00:15:33;;;;;;;1.30;1.20;;;16.20;62.60;;;;;;4851700;29;20465;-59
2022/04/18 00:18:06;;;;;;;0.90;0.90;;;16.20;63.50;;;;;;4848607;29;20501;-59
2022/04/18 00:20:36;;;;;;;1.63;1.40;;;16.30;62.70;;;;;;4842095;29;20481;-60
2022/04/18 00:23:07;;;;;;;1.20;1.03;;;16.30;64.30;;;;;;4847079;29;20525;-59
2022/04/18 00:25:40;;;;;;;4.07;1.53;;;16.20;63.10;;;;;;4841981;29;20462;-59
2022/04/18 00:28:15;;;;;;;1.67;1.00;;;16.10;64.60;;;;;;4842392;29;20454;-60
2022/04/18 00:30:49;;;;;;;1.73;1.37;;;16.00;63.40;;;;;;4845972;29;20450;-59
2022/04/18 00:33:22;;;;;;;1.30;1.20;;;16.00;63.80;;;;;;4845134;29;20454;-59
2022/04/18 00:35:55;;;;;;;1.30;1.20;;;15.80;63.10;;;;;;4845814;29;20465;-59
2022/04/18 00:38:26;;;;;;;1.73;1.20;;;15.70;63.90;;;;;;4845131;29;20608;-59
2022/04/18 00:40:57;;;;;;;1.77;0.90;;;15.70;64.20;;;;;;4845499;29;20455;-59
2022/04/18 00:43:41;;;;;;;1.30;1.17;;;15.70;65.50;;;;;;4837257;29;20469;-60
2022/04/18 00:46:13;;;;;;;1.33;1.23;;;15.70;66.40;;;;;;4845374;29;20470;-59
2022/04/18 00:48:46;;;;;;;1.00;1.00;;;15.60;65.00;;;;;;4848959;29;20538;-59
2022/04/18 00:51:21;;;;;;;2.60;1.40;;;15.60;65.10;;;;;;4851243;29;20466;-59
2022/04/18 00:53:56;;;;;;;1.27;1.17;;;15.60;65.30;;;;;;4839356;29;20479;-59
2022/04/18 00:56:28;;;;;;;1.83;1.30;;;15.70;64.00;;;;;;4852021;29;20797;-60
2022/04/18 00:58:59;;;;;;;3.40;1.37;;;15.60;63.70;;;;;;4833413;29;20791;-60
2022/04/18 01:01:30;;;;;;;1.20;1.07;;;15.50;64.80;;;;;;4841003;29;20473;-61
2022/04/18 01:04:02;;;;;;;1.40;1.10;;;15.50;65.00;;;;;;4838450;29;20546;-59
2022/04/18 01:06:36;;;;;;;1.77;1.67;;;15.50;65.00;;;;;;4842449;29;20974;-61
2022/04/18 01:09:07;;;;;;;1.67;1.20;;;15.50;62.90;;;;;;4849679;29;20479;-62
2022/04/18 01:11:38;;;;;;;1.70;1.40;;;15.40;64.40;;;;;;4852311;29;20485;-64
2022/04/18 01:14:09;;;;;;;2.90;1.33;;;15.40;65.50;;;;;;4841845;29;20474;-62
2022/04/18 01:16:43;;;;;;;1.20;1.10;;;15.40;64.30;;;;;;4850727;29;20485;-63
2022/04/18 01:19:18;;;;;;;1.43;1.13;;;15.30;63.40;;;;;;4848022;29;20425;-63
2022/04/18 01:21:54;;;;;;;1.80;1.23;;;15.30;64.90;;;;;;4844631;29;20478;-64
2022/04/18 01:30:01;;;;;;;1.27;1.17;;;15.00;64.90;;;;;;4845175;29;20481;-64
2022/04/18 01:32:35;;;;;;;2.00;1.20;;;15.00;64.90;;;;;;4850184;29;20805;-64
2022/04/18 01:35:06;;;;;;;1.43;1.30;;;15.10;65.90;;;;;;4847271;29;20493;-63
2022/04/18 01:37:39;;;;;;;3.13;1.70;;;15.10;65.20;;;;;;4851057;29;20501;-59
2022/04/18 01:40:11;;;;;;;1.80;1.70;;;15.00;65.90;;;;;;4849869;29;20441;-60
2022/04/18 01:42:41;;;;;;;1.97;1.43;;;14.90;67.50;;;;;;4850900;29;20485;-59
2022/04/18 01:45:13;;;;;;;2.00;1.87;;;14.90;65.20;;;;;;4853282;29;20553;-59
2022/04/18 01:47:43;;;;;;;2.47;1.60;;;14.80;63.60;;;;;;4853779;29;20451;-58
2022/04/18 01:50:14;;;;;;;1.70;1.57;;;14.70;65.30;;;;;;4840885;29;20469;-58
2022/04/18 01:52:46;;;;;;;2.57;1.67;;;14.80;67.50;;;;;;4852561;29;20469;-59
2022/04/18 01:55:17;;;;;;;1.73;1.60;;;14.80;67.50;;;;;;4850022;29;20988;-59
2022/04/18 01:57:48;;;;;;;1.40;1.30;;;14.70;68.30;;;;;;4846051;29;20510;-59
2022/04/18 02:00:19;;;;;;;2.30;2.10;;;14.60;68.70;;;;;;4843480;29;20471;-59
2022/04/18 02:02:50;;;;;;;2.57;1.77;;;14.60;68.30;;;;;;4851926;29;20458;-58
2022/04/18 02:05:21;;;;;;;1.70;1.60;;;14.60;70.40;;;;;;4839758;29;20842;-59
2022/04/18 02:07:56;;;;;;;2.00;1.83;;;14.50;70.00;;;;;;4847388;29;20502;-59
2022/04/18 02:10:27;;;;;;;2.40;1.80;;;14.50;69.70;;;;;;4836632;29;20613;-59
2022/04/18 02:12:59;;;;;;;2.43;2.23;;;14.50;67.80;;;;;;4844640;29;20485;-59
2022/04/18 02:15:29;;;;;;;3.07;2.87;;;14.60;67.60;;;;;;4847289;29;20561;-59
2022/04/18 02:18:01;;;;;;;2.90;2.60;;;14.60;66.30;;;;;;4850228;29;20502;-60
2022/04/18 02:20:31;;;;;;;2.67;2.40;;;14.60;67.10;;;;;;4852895;29;20453;-61
2022/04/18 02:23:04;;;;;;;2.37;2.17;;;14.50;69.50;;;;;;4847565;29;20467;-59
2022/04/18 02:25:35;;;;;;;2.70;2.50;;;14.40;69.60;;;;;;4853233;29;20481;-60
2022/04/18 02:28:06;;;;;;;2.70;1.67;;;14.40;69.10;;;;;;4847453;29;20495;-61
2022/04/18 02:30:37;;;;;;;3.53;2.00;;;14.30;58.00;;;;;;4848218;29;20445;-59
2022/04/18 02:33:08;;;;;;;1.40;1.30;;;14.40;56.30;;;;;;4841257;29;20466;-59
2022/04/18 02:35:38;;;;;;;2.53;1.47;;;14.40;55.90;;;;;;4852212;29;20471;-60
2022/04/18 02:38:11;;;;;;;3.40;1.80;;;14.30;58.20;;;;;;4850692;29;20486;-59
2022/04/18 02:40:42;;;;;;;2.47;2.20;;;14.20;65.80;;;;;;4846057;29;20531;-59
2022/04/18 02:43:13;;;;;;;1.80;1.70;;;14.20;61.70;;;;;;4847659;29;20470;-60
2022/04/18 02:45:44;;;;;;;2.17;1.70;;;14.10;59.70;;;;;;4841301;29;20483;-59
2022/04/18 02:48:15;;;;;;;3.00;1.83;;;14.10;58.00;;;;;;4850010;29;20498;-60
2022/04/18 02:50:45;;;;;;;4.03;2.30;;;14.20;57.50;;;;;;4846870;29;20805;-59
2022/04/18 02:53:18;;;;;;;2.40;2.27;;;14.10;56.70;;;;;;4842495;29;20458;-60
2022/04/18 02:55:49;;;;;;;2.43;1.80;;;14.10;56.40;;;;;;4839369;29;20793;-60
2022/04/18 02:58:19;;;;;;;3.50;2.40;;;14.10;56.40;;;;;;4837465;29;20589;-59
2022/04/18 03:00:51;;;;;;;2.23;2.07;;;14.10;57.40;;;;;;4852556;29;20458;-60
2022/04/18 03:03:22;;;;;;;3.23;2.30;;;14.00;57.70;;;;;;4850014;29;20466;-59
2022/04/18 03:05:52;;;;;;;3.90;2.40;;;14.00;58.50;;;;;;4847913;29;20518;-59
2022/04/18 03:08:25;;;;;;;2.70;2.50;;;13.90;59.10;;;;;;4851673;29;20447;-60
2022/04/18 03:11:05;;;;;;;2.60;2.40;;;13.90;60.50;;;;;;4847504;29;20490;-59
2022/04/18 03:13:37;;;;;;;3.50;2.30;;;13.80;63.20;;;;;;4846068;29;21140;-60
2022/04/18 03:16:08;;;;;;;3.90;3.07;;;13.70;62.80;;;;;;4840314;29;20550;-60
2022/04/18 03:18:39;;;;;;;3.13;2.77;;;13.70;61.90;;;;;;4847961;29;20510;-60
2022/04/18 03:21:10;;;;;;;6.87;6.07;;;13.60;64.80;;;;;;4847786;29;20595;-60
2022/04/18 03:23:44;;;;;;;7.47;5.07;;;13.60;66.70;;;;;;4848580;29;20526;-59
2022/04/18 03:26:15;;;;;;;6.43;5.00;;;13.50;67.20;;;;;;4841114;29;20474;-60
2022/04/18 03:28:45;;;;;;;3.17;2.87;;;13.50;76.70;;;;;;4845235;29;20471;-60
2022/04/18 03:31:16;;;;;;;2.83;2.20;;;13.50;78.20;;;;;;4839615;29;20534;-61
2022/04/18 03:33:47;;;;;;;4.60;3.10;;;13.40;75.00;;;;;;4843734;29;20502;-60
2022/04/18 03:41:54;;;;;;;3.30;2.83;;;13.10;80.30;;;;;;4846615;29;20454;-60
2022/04/18 03:44:25;;;;;;;2.40;2.20;;;13.00;82.90;;;;;;4850749;29;20467;-60
2022/04/18 03:46:57;;;;;;;2.93;2.73;;;13.00;84.90;;;;;;4835215;29;20491;-60
2022/04/18 03:49:28;;;;;;;3.10;2.90;;;12.90;82.80;;;;;;4843014;29;20478;-60
2022/04/18 03:51:59;;;;;;;2.90;2.60;;;12.90;83.80;;;;;;4848459;29;20474;-60
2022/04/18 03:54:31;;;;;;;3.23;3.03;;;12.90;90.00;;;;;;4845549;29;20481;-59
2022/04/18 03:57:02;;;;;;;3.60;2.67;;;12.70;90.90;;;;;;4847640;29;20492;-59
2022/04/18 03:59:33;;;;;;;3.13;2.83;;;12.70;85.50;;;;;;4845187;29;20620;-59
2022/04/18 04:02:04;;;;;;;3.57;3.10;;;12.70;81.50;;;;;;4850013;29;20835;-60
2022/04/18 04:04:36;;;;;;;4.37;3.50;;;12.60;86.50;;;;;;4849915;29;20621;-59
2022/04/18 04:07:07;;;;;;;3.67;3.07;;;12.60;84.10;;;;;;4848379;29;20433;-60
2022/04/18 04:09:40;;;;;;;3.03;2.83;;;12.70;83.30;;;;;;4844425;29;20505;-59
2022/04/18 04:12:11;;;;;;;3.37;3.07;;;12.70;82.80;;;;;;4850201;29;20469;-59
2022/04/18 04:14:42;;;;;;;4.67;3.93;;;12.60;85.70;;;;;;4846926;29;20474;-59
2022/04/18 04:17:13;;;;;;;3.70;3.40;;;12.60;89.70;;;;;;4846705;29;20466;-59
2022/04/18 04:19:57;;;;;;;4.80;3.80;;;12.70;81.80;;;;;;4847325;29;20626;-60
2022/04/18 04:22:28;;;;;;;4.57;3.40;;;12.80;81.90;;;;;;4850313;29;20470;-59
2022/04/18 04:25:00;;;;;;;3.73;3.23;;;12.70;82.60;;;;;;4846599;29;20469;-60
2022/04/18 04:27:31;;;;;;;3.80;3.50;;;12.60;83.70;;;;;;4839514;29;20469;-60
2022/04/18 04:30:02;;;;;;;4.00;3.70;;;12.60;83.70;;;;;;4845949;29;20483;-59
2022/04/18 04:32:33;;;;;;;4.17;3.87;;;12.60;81.90;;;;;;4847597;29;20469;-60
2022/04/18 04:35:04;;;;;;;4.27;2.80;;;12.70;80.80;;;;;;4839334;29;20486;-60
2022/04/18 04:37:34;;;;;;;5.13;3.30;;;12.70;80.30;;;;;;4837207;29;20562;-59
2022/04/18 04:40:08;;;;;;;3.87;3.30;;;12.70;80.70;;;;;;4843506;29;20582;-60
2022/04/18 04:42:39;;;;;;;4.23;3.43;;;12.70;79.40;;;;;;4846080;29;20473;-60
2022/04/18 04:45:10;;;;;;;2.90;2.23;;;12.80;79.70;;;;;;4844790;29;20467;-59
2022/04/18 04:47:43;;;;;;;4.00;2.60;;;12.80;79.50;;;;;;4851454;29;20484;-59
2022/04/18 04:50:15;;;;;;;3.13;2.00;;;12.70;79.40;;;;;;4836700;29;21010;-59
2022/04/18 04:52:45;;;;;;;2.97;2.20;;;12.70;80.20;;;;;;4844234;29;20456;-59
2022/04/18 04:55:19;;;;;;;3.40;2.50;;;12.70;80.80;;;;;;4834045;29;20464;-58
2022/04/18 04:57:50;;;;;;;3.90;1.87;;;12.70;81.70;;;;;;4832748;29;20471;-59
2022/04/18 05:00:21;;;;;;;2.97;2.07;;;12.70;81.20;;;;;;4833895;29;20550;-60
2022/04/18 05:02:52;;;;;;;2.07;1.70;;;12.70;81.20;;;;;;4840167;29;20467;-59
2022/04/18 05:05:23;;;;;;;2.80;1.63;;;12.60;81.20;;;;;;4833523;29;20464;-59
2022/04/18 05:07:55;;;;;;;3.73;2.10;;;12.60;82.60;;;;;;4834974;29;20451;-59
2022/04/18 05:10:27;;;;;;;2.27;2.00;;;12.60;83.40;;;;;;4833964;29;20498;-59
2022/04/18 05:12:58;;;;;;;2.37;1.80;;;12.60;83.60;;;;;;4835247;29;20485;-59
2022/04/18 05:15:29;;;;;;;2.00;1.90;;;12.60;84.20;;;;;;4846229;29;20486;-60
2022/04/18 05:18:00;;;;;;;3.57;2.30;;;12.60;84.80;;;;;;4845485;29;20480;-59
2022/04/18 05:20:32;;;;;;;3.20;2.33;;;12.50;85.40;;;;;;4849180;29;20513;-59
2022/04/18 05:23:03;;;;;;;2.83;1.73;;;12.40;84.20;;;;;;4838944;29;20478;-59
2022/04/18 05:25:36;;;;;;;2.33;2.07;;;12.40;86.20;;;;;;4847553;29;20458;-59
2022/04/18 05:28:07;;;;;;;2.30;2.10;;;12.40;86.80;;;;;;4849525;29;20477;-59
2022/04/18 05:30:39;;;;;;;3.40;1.93;;;12.40;86.90;;;;;;4843573;29;20466;-59
2022/04/18 05:33:10;;;;;;;3.03;2.10;;;12.20;86.90;;;;;;4850281;29;20474;-59
2022/04/18 05:35:41;;;;;;;2.07;1.83;;;12.20;87.80;;;;;;4846904;29;20477;-59
2022/04/18 05:38:14;;;;;;;5.33;2.43;;;12.20;87.30;;;;;;4847312;29;20470;-59
2022/04/18 05:40:46;;;;;;;3.03;1.90;;;12.10;87.30;;;;;;4845711;29;20513;-59
2022/04/18 05:43:18;;;;;;;2.27;1.70;;;12.20;88.70;;;;;;4834669;29;20459;-59
2022/04/18 05:45:50;;;;;;;1.97;1.47;;;12.10;87.80;;;;;;4841888;29;20545;-59
2022/04/18 05:48:21;;;;;;;2.00;1.80;;;12.10;87.60;;;;;;4851220;29;20545;-59
2022/04/18 05:50:52;;;;;;;2.50;1.87;;;12.10;88.50;;;;;;4849336;29;20475;-59
2022/04/18 05:53:27;;;;;;;5.40;2.47;;;12.00;88.80;;;;;;4846822;29;20454;-59
2022/04/18 05:55:59;;;;;;;3.30;2.23;;;12.00;89.20;;;;;;4851646;29;20575;-59
2022/04/18 05:58:31;;;;;;;1.97;1.70;;;12.10;89.30;;;;;;4848324;29;20474;-59
2022/04/18 06:01:02;;;;;;;2.10;1.73;;;12.00;88.30;;;;;;4851082;29;20501;-59
2022/04/18 06:03:33;;;;;;;2.80;1.40;;;12.00;88.10;;;;;;4850370;29;20466;-59
2022/04/18 06:06:03;;;;;;;2.77;1.43;;;12.00;87.90;;;;;;4853172;29;20462;-59
2022/04/18 06:08:34;;;;;;;2.10;1.57;;;12.00;87.70;;;;;;4853229;29;21090;-59
2022/04/18 06:11:07;;;;;;;1.20;1.10;;;11.90;88.70;;;;;;4851104;29;20496;-60
2022/04/18 06:13:38;;;;;;;2.33;1.40;;;11.90;88.00;;;;;;4849723;29;20474;-59
2022/04/18 06:16:09;;;;;;;2.23;1.30;;;11.80;87.60;;;;;;4852200;29;20638;-59
2022/04/18 06:18:40;;;;;;;1.77;1.67;;;11.90;87.40;;;;;;4841760;29;20471;-59
2022/04/18 06:21:11;;;;;;;1.37;1.27;;;11.90;87.90;;;;;;4842199;29;20510;-59
2022/04/18 06:23:41;;;;;;;3.07;1.63;;;11.80;87.90;;;;;;4853707;29;20466;-59
2022/04/18 06:26:14;;;;;;;1.40;1.30;;;11.80;88.60;;;;;;4853896;29;20478;-59
2022/04/18 06:28:44;;;;;;;3.03;1.43;;;11.70;88.20;;;;;;4850019;29;20470;-60
2022/04/18 06:31:15;;;;;;;2.40;1.67;;;11.70;88.50;;;;;;4840160;29;20529;-59
2022/04/18 06:33:46;;;;;;;1.40;1.30;;;11.70;88.40;;;;;;4853069;29;20480;-59
2022/04/18 06:36:18;;;;;;;1.83;1.50;;;11.70;88.40;;;;;;4841146;29;20471;-59
2022/04/18 06:38:49;;;;;;;1.63;1.37;;;11.70;87.80;;;;;;4840283;29;20544;-59
2022/04/18 06:41:21;;;;;;;2.10;1.00;;;11.60;88.70;;;;;;4849786;29;20503;-59
2022/04/18 06:43:52;;;;;;;1.17;1.10;;;11.60;88.60;;;;;;4851128;29;20470;-59
2022/04/18 06:46:23;;;;;;;3.40;1.57;;;11.60;89.90;;;;;;4852226;29;20471;-59
2022/04/18 06:48:54;;;;;;;1.40;1.30;;;11.60;89.50;;;;;;4845449;29;20471;-59
2022/04/18 06:51:25;;;;;;;2.10;0.90;;;11.60;89.50;;;;;;4851794;29;20477;-59
2022/04/18 06:53:55;;;;;;;1.37;1.20;;;11.60;89.10;;;;;;4848850;29;20474;-59
2022/04/18 06:59:15;;;;;;;3.67;1.20;;;11.60;88.90;;;;;;4841382;29;20624;-59
2022/04/18 07:01:46;;;;;;;1.60;1.10;;;11.60;90.00;;;;;;4847719;29;20493;-59
2022/04/18 07:04:17;;;;;;;2.63;1.43;;;11.60;89.20;;;;;;4844218;29;20975;-60
2022/04/18 07:06:48;;;;;;;2.83;1.30;;;11.60;88.60;;;;;;4846217;29;20513;-59
2022/04/18 07:09:19;;;;;;;2.17;1.30;;;11.60;87.80;;;;;;4850529;29;20474;-60
2022/04/18 07:11:52;;;;;;;1.80;1.50;;;11.60;89.20;;;;;;4852184;29;20488;-59
2022/04/18 07:14:23;;;;;;;1.77;0.90;;;11.60;90.00;;;;;;4843245;29;20585;-59
2022/04/18 07:16:54;;;;;;;1.43;1.20;;;11.60;89.50;;;;;;4847410;29;20467;-59
2022/04/18 07:19:24;;;;;;;1.40;1.03;;;11.60;89.80;;;;;;4849137;29;20470;-59
2022/04/18 07:21:56;;;;;;;2.20;0.80;;;11.60;90.10;;;;;;4850272;29;20510;-59
2022/04/18 07:24:26;;;;;;;2.63;1.53;;;11.50;90.10;;;;;;4843724;29;20463;-59
2022/04/18 07:27:01;;;;;;;1.00;0.90;;;11.50;88.60;;;;;;4835916;29;20470;-59
2022/04/18 07:29:33;;;;;;;1.00;1.00;;;11.50;87.90;;;;;;4849608;29;20477;-59
2022/04/18 07:32:05;;;;;;;1.00;0.90;;;11.50;87.60;;;;;;4844345;29;20483;-59
2022/04/18 07:34:36;;;;;;;1.47;0.93;;;11.50;86.50;;;;;;4841486;29;20478;-60
2022/04/18 07:37:07;;;;;;;1.20;1.10;;;11.50;87.20;;;;;;4851577;29;20967;-59
2022/04/18 07:39:38;;;;;;;1.30;0.80;;;11.50;86.40;;;;;;4851443;29;20509;-59
2022/04/18 07:42:10;;;;;;;1.83;1.00;;;11.50;86.30;;;;;;4850407;29;20504;-59
2022/04/18 07:44:41;;;;;;;1.07;0.80;;;11.50;85.50;;;;;;4850526;29;20470;-59
2022/04/18 07:47:12;;;;;;;1.00;0.90;;;11.50;85.60;;;;;;4840302;29;20485;-59
2022/04/18 07:49:43;;;;;;;1.00;0.90;;;11.50;84.00;;;;;;4848298;29;20484;-59
2022/04/18 07:52:14;;;;;;;1.50;0.97;;;11.50;84.70;;;;;;4850903;29;20546;-60
2022/04/18 07:54:45;;;;;;;0.47;0.43;;;11.50;84.90;;;;;;4852846;29;20495;-59
2022/04/18 07:57:18;;;;;;;1.40;1.00;;;11.40;84.60;;;;;;4848581;29;20503;-60
2022/04/18 07:59:48;;;;;;;1.03;0.93;;;11.40;84.40;;;;;;4840786;29;21235;-59
2022/04/18 08:02:19;;;;;;;1.10;0.97;;;11.50;83.50;;;;;;4846252;29;20493;-59
2022/04/18 08:04:50;;;;;;;0.90;0.70;;;11.40;84.20;;;;;;4834688;29;20470;-59
2022/04/18 08:07:21;;;;;;;3.10;1.00;;;11.40;84.70;;;;;;4849684;29;20474;-60
2022/04/18 08:09:52;;;;;;;1.00;0.87;;;11.40;84.40;;;;;;4840981;29;20566;-59
2022/04/18 08:12:25;;;;;;;1.37;1.20;;;11.30;84.90;;;;;;4842828;29;20474;-59
2022/04/18 08:14:55;;;;;;;1.83;0.90;;;11.40;85.80;;;;;;4850188;29;20470;-59
2022/04/18 08:17:26;;;;;;;2.67;0.90;;;11.40;84.90;;;;;;4847795;29;20504;-59
2022/04/18 08:19:57;;;;;;;1.00;0.97;;;11.30;85.90;;;;;;4844605;29;20477;-59
2022/04/18 08:22:28;;;;;;;1.27;1.17;;;11.40;85.70;;;;;;4843647;29;20505;-59
2022/04/18 08:24:59;;;;;;;2.47;1.20;;;11.30;85.60;;;;;;4840622;29;20474;-59
2022/04/18 08:27:31;;;;;;;1.37;0.80;;;11.20;86.40;;;;;;4849046;29;20577;-59
2022/04/18 08:30:02;;;;;;;1.97;1.03;;;11.30;86.90;;;;;;4850307;29;20486;-59
2022/04/18 08:32:37;;;;;;;1.10;1.00;;;11.30;86.80;;;;;;4848969;29;20476;-59
2022/04/18 08:35:08;;;;;;;0.90;0.90;;;11.20;88.20;;;;;;4841762;29;20470;-60
2022/04/18 08:37:39;;;;;;;0.97;0.97;;;11.10;88.00;;;;;;4846683;29;20463;-59
2022/04/18 08:40:12;;;;;;;1.53;0.97;;;11.10;89.10;;;;;;4844681;29;20484;-59
2022/04/18 08:42:45;;;;;;;4.50;1.30;;;11.00;90.00;;;;;;4839034;29;20507;-59
2022/04/18 08:45:16;;;;;;;2.00;0.90;;;11.00;90.30;;;;;;4839233;29;20585;-59
2022/04/18 08:53:28;;;;;;;2.20;1.20;;;10.90;91.20;;;;;;4838740;29;20462;-59
2022/04/18 08:56:00;;;;;;;1.37;1.27;;;10.90;91.00;;;;;;4849539;29;20537;-59
2022/04/18 08:58:33;;;;;;;3.07;1.33;;;10.80;91.50;;;;;;4849082;29;20467;-59
2022/04/18 09:01:05;;;;;;;1.90;1.40;;;10.90;91.60;;;;;;4847982;29;20517;-59
2022/04/18 09:03:37;;;;;;;1.67;1.57;;;10.80;92.10;;;;;;4842290;29;20466;-60
2022/04/18 09:06:10;;;;;;;1.90;1.60;;;10.80;92.50;;;;;;4849810;29;20480;-59
2022/04/18 09:08:51;;;;;;;1.77;1.67;;;10.70;93.40;;;;;;4850320;29;20481;-60
2022/04/18 09:11:29;;;;;;;1.47;1.23;;;10.70;93.40;;;;;;4841682;29;20506;-59
2022/04/18 09:14:10;;;;;;;2.20;1.37;;;10.60;93.90;;;;;;4837913;29;20467;-59
2022/04/18 09:16:41;;;;;;;1.87;1.63;;;10.70;94.10;;;;;;4846428;29;20470;-59
2022/04/18 09:19:13;;;;;;;2.23;1.10;;;10.70;93.80;;;;;;4846565;29;20978;-59
2022/04/18 09:21:45;;;;;;;3.20;1.70;;;10.70;94.20;;;;;;4848375;29;20502;-59
2022/04/18 09:24:32;;;;;;;1.60;1.30;;;10.70;94.80;;;;;;4837268;29;20739;-59
2022/04/18 09:27:07;;;;;;;3.07;1.90;;;10.60;94.80;;;;;;4847346;29;20469;-59
2022/04/18 09:29:40;;;;;;;1.60;1.50;;;10.60;95.80;;;;;;4850929;29;20473;-59
2022/04/18 09:32:12;;;;;;;2.53;1.77;;;10.60;95.50;;;;;;4851804;29;20569;-59
2022/04/18 09:34:44;;;;;;;4.63;2.30;;;10.60;96.10;;;;;;4845962;29;20474;-59
2022/04/18 09:37:17;;;;;;;1.80;1.60;;;10.60;95.80;;;;;;4842393;29;20470;-59
2022/04/18 09:39:54;;;;;;;3.30;1.90;;;10.60;96.50;;;;;;4836383;29;21039;-59
2022/04/18 09:42:26;;;;;;;1.77;1.47;;;10.60;96.30;;;;;;4845926;29;20489;-59
2022/04/18 09:44:59;;;;;;;2.60;2.30;;;10.60;96.20;;;;;;4851281;29;20461;-59
2022/04/18 09:47:36;;;;;;;2.33;2.13;;;10.60;96.00;;;;;;4852358;29;20545;-59
2022/04/18 09:53:02;;;;;;;4.83;2.50;;;10.60;95.80;;;;;;4845228;29;20466;-59
2022/04/18 09:55:33;;;;;;;3.37;2.30;;;10.60;96.10;;;;;;4839412;29;20469;-59
2022/04/18 09:58:05;;;;;;;2.83;2.00;;;10.50;96.70;;;;;;4853373;29;20462;-59
2022/04/18 10:00:58;;;;;;;4.37;2.33;;;10.50;96.60;;;;;;4854306;29;20458;-59
2022/04/18 10:03:36;;;;;;;3.33;1.97;;;10.50;96.80;;;;;;4845035;29;20516;-59
2022/04/18 10:06:07;;;;;;;2.17;1.97;;;10.50;97.50;;;;;;4846045;29;20462;-61
2022/04/18 10:08:39;;;;;;;2.77;2.27;;;10.50;97.50;;;;;;4848932;29;20529;-59
2022/04/18 10:11:11;;;;;;;2.40;2.20;;;10.50;97.90;;;;;;4840053;29;20498;-59
2022/04/18 10:13:41;;;;;;;3.33;2.33;;;10.40;98.00;;;;;;4846246;29;20467;-59
2022/04/18 10:16:16;;;;;;;2.33;2.13;;;10.40;98.20;;;;;;4841514;29;20462;-59
2022/04/18 10:18:51;;;;;;;4.30;3.43;;;10.40;98.60;;;;;;4849514;29;20469;-59
2022/04/18 10:21:29;;;;;;;4.10;2.40;;;10.40;97.90;;;;;;4840838;29;20466;-59
2022/04/18 10:24:48;;;;;;;4.43;2.50;;;10.40;98.20;;;;;;4847274;29;20462;-59
2022/04/18 10:27:51;;;;;;;2.97;2.70;;;10.40;98.70;;;;;;4851652;29;20501;-59
2022/04/18 10:30:22;;;;;;;3.40;2.47;;;10.40;98.30;;;;;;4841316;29;20471;-59
2022/04/18 10:32:56;;;;;;;2.73;2.40;;;10.40;98.50;;;;;;4849299;29;20462;-59
2022/04/18 10:35:27;;;;;;;3.50;2.97;;;10.40;98.40;;;;;;4837791;29;20462;-59
2022/04/18 10:37:58;;;;;;;3.40;2.70;;;10.40;98.40;;;;;;4850559;29;20955;-59
2022/04/18 10:40:39;;;;;;;3.63;2.80;;;10.40;99.00;;;;;;4845940;29;20478;-59
2022/04/18 10:43:11;;;;;;;3.47;2.70;;;10.30;99.00;;;;;;4850007;29;20508;-59
2022/04/18 10:45:42;;;;;;;2.10;1.90;;;10.30;98.80;;;;;;4841067;29;20582;-60
2022/04/18 10:48:15;;;;;;;3.70;3.10;;;10.30;98.70;;;;;;4851107;29;20470;-59
2022/04/18 10:50:51;;;;;;;3.03;2.73;;;10.30;99.10;;;;;;4848843;29;20474;-59
2022/04/18 10:53:36;;;;;;;4.20;2.83;;;10.30;99.40;;;;;;4836707;29;20483;-59
2022/04/18 10:56:11;;;;;;;3.43;2.40;;;10.30;99.60;;;;;;4850712;29;21283;-59
2022/04/18 10:58:46;;;;;;;4.23;2.80;;;10.40;99.30;;;;;;4843841;29;20481;-59
2022/04/18 11:01:20;;;;;;;3.20;2.77;;;10.30;99.30;;;;;;4849678;29;20473;-59
2022/04/18 11:04:00;;;;;;;3.72;2.80;;;10.30;99.50;;;;;;4842386;29;20592;-59
2022/04/18 11:06:48;;;;;;;2.80;2.60;;;10.30;99.70;;;;;;4843558;29;20226;-59
2022/04/18 11:09:26;;;;;;;5.00;2.90;;;10.20;99.70;;;;;;4785291;29;1793695;-59
2022/04/18 11:12:08;;;;;;;3.30;3.00;;;10.20;99.90;;;;;;4862063;29;20469;-59
2022/04/18 11:14:53;;;;;;;2.47;2.27;;;10.20;99.40;;;;;;4851393;29;20478;-59
2022/04/18 11:17:30;;;;;;;2.77;2.00;;;10.30;98.40;;;;;;4845802;29;20470;-59
2022/04/18 11:20:29;;;;;;;2.60;2.40;;;10.30;99.90;;;;;;4851838;29;20478;-59
2022/04/18 11:23:25;;;;;;;4.17;3.10;;;10.30;99.90;;;;;;4839772;29;20502;-59
2022/04/18 11:26:00;;;;;;;3.10;2.80;;;10.20;99.50;;;;;;4844424;29;20454;-59
2022/04/18 11:28:35;;;;;;;2.73;2.53;;;10.20;99.70;;;;;;4848466;29;22133;-59
2022/04/18 11:31:11;;;;;;;3.23;2.93;;;10.20;99.90;;;;;;4850531;29;20947;-59
2022/04/18 11:33:43;;;;;;;4.13;2.90;;;10.20;99.90;;;;;;4842618;29;20486;-59
2022/04/18 11:36:16;;;;;;;5.23;2.30;;;10.10;99.90;;;;;;4848176;29;20523;-59
2022/04/18 11:38:47;;;;;;;2.67;2.47;;;10.10;99.90;;;;;;4850194;29;21930;-59
2022/04/18 11:41:18;;;;;;;3.47;2.70;;;10.00;99.90;;;;;;4848808;29;20477;-59
2022/04/18 11:43:57;;;;;;;4.27;2.90;;;10.00;99.90;;;;;;4846428;29;20501;-59
2022/04/18 11:46:31;;;;;;;4.17;2.67;;;9.90;99.90;;;;;;4850558;29;20462;-59
2022/04/18 11:49:03;;;;;;;3.07;2.60;;;9.80;99.90;;;;;;4836487;29;20467;-59
2022/04/18 11:51:44;;;;;;;2.90;2.63;;;9.80;99.90;;;;;;4846748;29;20470;-59
2022/04/18 11:54:15;;;;;;;2.90;2.60;;;9.70;99.90;;;;;;4846186;29;20978;-59
2022/04/18 11:56:57;;;;;;;2.60;1.93;;;9.70;99.90;;;;;;4842093;29;20484;-59
2022/04/18 11:59:32;;;;;;;2.53;2.33;;;9.70;99.90;;;;;;4839591;29;20489;-59
2022/04/18 12:07:48;;;;;;;3.47;2.43;;;9.70;99.90;;;;;;4850477;29;20470;-59
2022/04/18 12:10:25;;;;;;;3.90;2.40;;;9.80;99.90;;;;;;4851225;29;20493;-59
2022/04/18 12:12:56;;;;;;;4.13;2.03;;;9.70;99.90;;;;;;4841019;29;20480;-59
2022/04/18 12:15:28;;;;;;;3.93;2.50;;;9.80;99.90;;;;;;4840132;29;20570;-59
2022/04/18 12:17:59;;;;;;;2.37;2.00;;;9.70;99.90;;;;;;4835087;29;20499;-59
2022/04/18 12:20:31;;;;;;;3.37;2.30;;;9.70;99.90;;;;;;4852071;29;20458;-59
2022/04/18 12:23:04;;;;;;;2.67;2.40;;;9.70;99.90;;;;;;4836685;29;20534;-59
2022/04/18 12:25:35;;;;;;;2.30;1.60;;;9.80;99.90;;;;;;4838855;29;20470;-59
2022/04/18 12:28:07;;;;;;;4.53;1.83;;;9.80;99.90;;;;;;4833473;29;20478;-59
2022/04/18 12:30:38;;;;;;;3.33;1.63;;;9.80;99.90;;;;;;4838966;29;20470;-59
2022/04/18 12:33:20;;;;;;;1.67;1.40;;;9.80;99.90;;;;;;4848624;29;20471;-59
2022/04/18 12:35:53;;;;;;;3.07;2.20;;;9.80;99.90;;;;;;4834565;29;20459;-59
2022/04/18 12:38:34;;;;;;;2.53;1.70;;;9.80;99.90;;;;;;4833819;29;20456;-59
2022/04/18 12:41:05;;;;;;;1.80;1.63;;;9.80;99.90;;;;;;4835433;29;20466;-59
2022/04/18 12:43:37;;;;;;;1.33;1.13;;;9.90;99.90;;;;;;4838812;29;20597;-59
2022/04/18 12:46:10;;;;;;;4.53;2.67;;;9.80;99.90;;;;;;4844755;29;20459;-59
2022/04/18 12:48:41;;;;;;;2.00;1.50;;;9.80;99.90;;;;;;4834102;29;20538;-58
2022/04/18 12:51:13;;;;;;;1.80;1.60;;;9.90;99.90;;;;;;4834189;29;20459;-59
2022/04/18 12:53:49;;;;;;;1.40;1.30;;;9.90;99.70;;;;;;4833536;29;20478;-59
2022/04/18 12:56:21;;;;;;;1.80;1.00;;;9.90;99.70;;;;;;4834551;29;20461;-59
2022/04/18 12:59:02;;;;;;;1.63;1.53;;;9.90;99.60;;;;;;4844293;29;20510;-59
2022/04/18 13:01:34;;;;;;;2.60;1.10;;;9.90;99.40;;;;;;4851144;29;20458;-59
2022/04/18 13:04:07;;;;;;;1.37;1.13;;;9.90;99.60;;;;;;4840465;29;20495;-59
2022/04/18 13:06:38;;;;;;;1.37;1.03;;;9.90;98.80;;;;;;4843352;29;20852;-59
2022/04/18 13:09:11;;;;;;;1.40;1.27;;;9.90;98.90;;;;;;4840790;29;20452;-59
2022/04/18 13:11:43;;;;;;;1.50;1.40;;;9.90;98.70;;;;;;4834169;29;20450;-59
2022/04/18 13:14:16;;;;;;;2.70;1.30;;;9.90;98.80;;;;;;4847905;29;20463;-59
2022/04/18 13:16:46;;;;;;;1.80;1.30;;;9.90;98.20;;;;;;4844375;29;20562;-57
2022/04/18 13:19:17;;;;;;;2.53;1.60;;;9.90;98.60;;;;;;4838214;29;20607;-58
2022/04/18 13:21:54;;;;;;;1.20;1.10;;;9.80;99.00;;;;;;4842858;29;20237;-59
2022/04/18 13:24:26;;;;;;;1.30;1.20;;;9.80;99.00;;;;;;4838446;29;20503;-59
2022/04/18 13:26:57;;;;;;;1.30;0.90;;;9.80;98.90;;;;;;4847961;29;20450;-58
2022/04/18 13:29:28;;;;;;;1.27;1.00;;;9.90;98.50;;;;;;4841463;29;20463;-57
2022/04/18 13:31:59;;;;;;;3.08;1.23;;;9.80;98.70;;;;;;4835794;29;20217;-60
2022/04/18 13:34:30;;;;;;;2.63;1.30;;;9.80;98.80;;;;;;4849077;29;20334;-58
2022/04/18 13:37:00;;;;;;;1.50;1.20;;;9.80;98.90;;;;;;4849399;29;20462;-58
2022/04/18 13:39:33;;;;;;;1.50;1.30;;;9.80;99.50;;;;;;4834944;29;20202;-58
2022/04/18 13:42:04;;;;;;;1.40;1.30;;;9.80;99.50;;;;;;4845672;29;20227;-58
2022/04/18 13:44:34;;;;;;;2.10;1.50;;;9.80;99.50;;;;;;4832312;29;20494;-59